Aviation Digital Data Service (ADDS)

Output produced by TAFs form (1900 UTC 21 November 2014)
found at http://aviationweather.gov/adds/tafs/
 
KCNM 211739Z 2118/2218 VRB05KT P6SM SCT200 
     FM220700 33005KT P6SM OVC020